Clay, Texas
Current Conditions -  °F | °C
As of 3:15 AM on Thursday 23 Oct 2014 (Local Time) from K11R Reporting Station
Clear Clear  
Wind Chill: 66°   Ceiling: Unl
Heat Index: 66°   Visibility: 10mi
Dew Point: 58°   Wind: 3mph
Humidity: 73%   Direction: 100°E
Pressure: 30.1"   Gusts: NA
Location:  30.39°N, 96.34°W
Report Text: K11R 230815Z AUTO 10003KT 10SM CLR 19/14 A3010 RMK AO2 T01910142
Loading
Personal Weather Stations






























Interactive Weather Map
Tropical Storm Tracking
New forecast layout! Learn more

10-Day Weather Forecast

Advertisements
Track Severe Weather on mobile